Aeroporto :
LOGIN :

Iscrizione | Disclaimer

   EN    FR    IT 

 










Sommario :    VFR   VFR Marginale   IFR   IFR Intensivo   IFR Molto Intensivo
Visibilità : 
Base nubi : 
>= 8 km
>= 3000ft
5 / 8 km
1000 / 3000 ft
1500m / 5 km
500 / 1000 ft
800 / 1500m
200 / 500 ft
< 800m
< 200 ft
Simboli :   Temporali  Nebbia  Neve Forte  Precipitazioni Forti  Vento > 20 kt
SIGMETs :   Varie  Temporali  Ghiacco  Turbolenza  Onda orograficha  Ceneri Vulcaniche






- Altitudine del aeroporto : 34 ft
- Codice IATA : BLK


EGNH - Blackpool

ULTIMO METAR :
  • 301250Z 30008KT 9999 FEW010 BKN030 11/10 Q1013

METARs OBSOLETI :
  • 301220Z 31012KT 9000 -DZ FEW006 BKN010 11/10 Q1013
  • 301150Z 30009KT 9999 FEW003 SCT006 BKN020 13/12 Q1012
  • 301120Z 30011KT 9000 -DZ FEW003 SCT012 21/11 Q1012
  • 301050Z 29010KT 7000 -DZ SCT008 SCT012 11/11 Q1011
  • 301020Z 27011KT 7000 -DZ FEW003 BKN011 12/12 Q1011
  • 300950Z 27008KT 9000 VCSH FEW004 BKN012 12/12 Q1010

TAF TAF EGNH
Valido dal 30 a 12 ore il 30 a 21 ore UTC


301107Z 3012/3021 30010KT 5000 -DZ BKN008
BECMG 3012/3015 9999 NSW SCT030
BECMG 3017/3020 VRB03KT
ATIS : +44 1253 343 434 (x8315)



MetMap, La meteo Aeronautica in un colpo d'occhio ! - Copyright ORBIFLY Dicembre 2007 - Disclaimer

ORBIFLY MET'MAP TEAM :

Programmazione e sviluppo : Alexandra Zaïnal
Concezione : Baudouin d'Aumeries
Aiuto per la programmazione : Marc-Olivier Méhu
Supporto tecnico e logistico : Manuel Goepfert
Aiuto per la traduzione : Arnaldo La Scala

Contatto : metmap@orbifly.com




FONTI E CREDITI :

   NOAA